Montvale, NJ

1:59 AM EDT on July 25, 2016 (GMT -0400)
| | Change Station
Active Advisory: Heat Advisory

Elev -9999 ft 0.00 °N, 0.00 °E | Updated

Mostly Cloudy
Mostly Cloudy
75 °F
Feels Like 75 °F
N
3
Wind Variable Wind from SW
Gusts mph

Today
High -- | Low -- °F
--% Chance of Precip.
Yesterday
High -- | Low -- °F
Precip. -- in
Pressure 29.94 in
Visibility 10.0 miles
Clouds Clear
Dew Point 67 °F
Humidity 76%
Rainfall --
Snow Depth Not available.
5:45 AM 8:19 PM
Waning Gibbous, 69% visible
METAR KTEB 250551Z 19004KT 10SM CLR 27/19 A2994 RMK AO2 SLP137 T02670189 10322 20267 58006
Pressure 29.94 in
Visibility 10.0 miles
Clouds Clear
Dew Point 67 °F
Humidity 76%
Rainfall --
Snow Depth Not available.
5:45 AM 8:19 PM
Waning Gibbous, 69% visible
METAR KTEB 250551Z 19004KT 10SM CLR 27/19 A2994 RMK AO2 SLP137 T02670189 10322 20267 58006

10-Day Weather Forecast

Almanac

Astronomy

Jul. 25, 2016 Rise Set
Actual Time
Civil Twilight
Nautical Twilight
Astronomical Twilight
Moon
Length of Visible Light
Length of Day
Tomorrow will be .
, % of the Moon is Illuminated

Today's Extremes

State Highs State Lows

Community

WunderPhotos

Upload Photos

1,927,274 photos uploaded!

WunderBlog® & News

Nearby

Air Quality

  Air Quality AQ Index Pollutant
Not available.

Snow Depth

Station Depth Elevation

Earthquake Activity

City Distance Mag. Time & Date
Minimum magnitude displayed is 2.5.

Coastal Water Temperatures

Place Temperature

Stations

Nearby Weather Stations

Station Location Temp. Windchill Dew Point Humidity Wind Precip. Elev Updated Type
                   

Watches & Warnings

Heat Advisory
Issued: 6:17 PM EDT Jul. 24, 2016 – National Weather Service

... Heat advisory remains in effect from noon to 8 PM EDT Monday...

* heat index values... around 100 due to temperatures near 90...
and dewpoints in the lower 70s.

* Timing... highest heat indices Monday afternoon.

* Impacts... the combination of the heat and humidity will
increase the risk for heat related health issues... especially
for the elderly... those with chronic health problems such as
lung and heart disease... those working outdoors... and other
heat sensitive groups of people.

Precautionary/preparedness actions...

A heat advisory is issued when the combination of heat and
humidity is expected to make it feel like it is 100 to
104 degrees for two consecutive hours.

To reduce risk during outdoor work the occupational safety and
health administration recommends scheduling frequent rest breaks
in shaded or air conditioned environments. Anyone overcome by
heat should be moved to a cool and shaded location. Heat stroke
is an emergency... call 9 1 1.